createdAt,value
2018-07-21T00:02:22.038Z,7.92
2018-07-21T00:04:49.272Z,7.03
2018-07-21T00:07:16.658Z,7.42
2018-07-21T00:09:44.111Z,7.25
2018-07-21T00:12:11.435Z,8.20
2018-07-21T00:14:38.789Z,7.58
2018-07-21T00:17:06.220Z,7.50
2018-07-21T00:19:33.467Z,7.17
2018-07-21T00:22:00.746Z,7.30
2018-07-21T00:24:28.193Z,6.55
2018-07-21T00:26:55.471Z,6.70
2018-07-21T00:29:22.721Z,6.95
2018-07-21T00:31:50.313Z,6.55
2018-07-21T00:34:17.592Z,7.25
2018-07-21T00:36:44.835Z,6.50
2018-07-21T00:39:14.625Z,6.90
2018-07-21T00:41:41.934Z,6.53
2018-07-21T00:44:09.256Z,6.67
2018-07-21T00:46:36.795Z,6.40
2018-07-21T00:49:04.193Z,6.53
2018-07-21T00:51:31.503Z,6.47
2018-07-21T00:53:58.777Z,6.28
2018-07-21T00:56:26.088Z,6.37
2018-07-21T00:58:53.374Z,6.10
2018-07-21T01:01:20.647Z,6.20
2018-07-21T01:03:48.248Z,6.17
2018-07-21T01:06:15.487Z,5.92
2018-07-21T01:08:42.764Z,6.42
2018-07-21T01:11:10.103Z,6.25
2018-07-21T01:13:37.395Z,6.00
2018-07-21T01:16:04.895Z,6.42
2018-07-21T01:18:32.240Z,6.12
2018-07-21T01:20:59.583Z,6.45
2018-07-21T01:23:26.911Z,6.15
2018-07-21T01:25:54.262Z,6.35
2018-07-21T01:28:21.590Z,6.33
2018-07-21T01:30:48.880Z,6.12
2018-07-21T01:33:16.295Z,6.00
2018-07-21T01:35:43.550Z,6.05
2018-07-21T01:38:10.882Z,6.10
2018-07-21T01:40:38.214Z,6.17
2018-07-21T01:43:05.507Z,5.83
2018-07-21T01:45:32.790Z,6.37
2018-07-21T01:48:00.059Z,6.78
2018-07-21T01:50:27.337Z,6.67
2018-07-21T01:52:54.649Z,6.78
2018-07-21T01:55:21.970Z,6.40
2018-07-21T01:57:49.253Z,6.30
2018-07-21T02:00:16.566Z,6.65
2018-07-21T02:02:44.887Z,7.08
2018-07-21T02:05:12.499Z,6.55
2018-07-21T02:07:40.041Z,7.08
2018-07-21T02:10:07.302Z,6.60
2018-07-21T02:12:34.683Z,6.67
2018-07-21T02:15:01.935Z,7.05
2018-07-21T02:17:29.203Z,6.80
2018-07-21T02:19:56.527Z,6.45
2018-07-21T02:22:23.762Z,6.40
2018-07-21T02:24:51.106Z,7.42
2018-07-21T02:27:18.346Z,6.80
2018-07-21T02:29:45.562Z,7.12
2018-07-21T02:32:12.828Z,7.08
2018-07-21T02:34:40.208Z,7.00
2018-07-21T02:37:07.463Z,6.83
2018-07-21T02:39:34.747Z,6.90
2018-07-21T02:42:02.045Z,6.55
2018-07-21T02:44:29.316Z,7.25
2018-07-21T02:46:56.613Z,6.60
2018-07-21T02:49:23.990Z,7.20
2018-07-21T02:51:51.343Z,7.20
2018-07-21T02:54:18.625Z,7.80
2018-07-21T02:56:45.983Z,7.75
2018-07-21T02:59:13.290Z,7.03
2018-07-21T03:01:40.522Z,7.30
2018-07-21T03:04:07.810Z,7.15
2018-07-21T03:06:35.078Z,7.80
2018-07-21T03:09:02.577Z,6.85
2018-07-21T03:11:29.904Z,7.20
2018-07-21T03:13:57.253Z,7.05
2018-07-21T03:16:24.491Z,6.85
2018-07-21T03:18:51.799Z,7.47
2018-07-21T03:21:19.067Z,7.35
2018-07-21T03:23:46.392Z,7.22
2018-07-21T03:26:13.760Z,7.62
2018-07-21T03:28:41.019Z,7.42
2018-07-21T03:31:08.470Z,7.92
2018-07-21T03:33:35.711Z,7.40
2018-07-21T03:36:02.976Z,7.62
2018-07-21T03:38:30.272Z,7.85
2018-07-21T03:40:57.553Z,8.10
2018-07-21T03:43:25.040Z,7.92
2018-07-21T03:45:52.278Z,8.03
2018-07-21T03:48:19.576Z,8.98
2018-07-21T03:50:46.929Z,8.73
2018-07-21T03:53:14.312Z,8.20
2018-07-21T03:55:41.673Z,8.28
2018-07-21T03:58:08.930Z,8.20
2018-07-21T04:00:36.289Z,8.13
2018-07-21T04:03:03.623Z,8.13
2018-07-21T04:05:31.025Z,8.70
2018-07-21T04:07:58.347Z,8.70
2018-07-21T04:10:25.686Z,8.70
2018-07-21T04:12:52.955Z,8.80
2018-07-21T04:15:20.323Z,8.08
2018-07-21T04:17:47.656Z,8.15
2018-07-21T04:20:14.979Z,8.90
2018-07-21T04:22:42.284Z,8.40
2018-07-21T04:25:09.641Z,9.13
2018-07-21T04:27:37.013Z,9.60
2018-07-21T04:30:04.444Z,8.93
2018-07-21T04:32:31.700Z,9.25
2018-07-21T04:34:58.983Z,9.23
2018-07-21T04:37:26.327Z,8.75
2018-07-21T04:39:53.644Z,8.53
2018-07-21T04:42:20.944Z,9.13
2018-07-21T04:44:48.339Z,8.53
2018-07-21T04:47:15.590Z,9.00
2018-07-21T04:49:42.900Z,8.78
2018-07-21T04:52:10.205Z,8.75
2018-07-21T04:54:37.575Z,9.00
2018-07-21T04:57:05.007Z,8.85
2018-07-21T04:59:32.251Z,8.93
2018-07-21T05:01:59.536Z,8.55
2018-07-21T05:04:26.783Z,9.35
2018-07-21T05:06:54.079Z,8.40
2018-07-21T05:09:21.544Z,8.40
2018-07-21T05:11:48.791Z,9.20
2018-07-21T05:14:16.067Z,8.93
2018-07-21T05:16:43.374Z,9.00
2018-07-21T05:19:10.712Z,8.83
2018-07-21T05:21:38.028Z,9.20
2018-07-21T05:24:05.704Z,9.20
2018-07-21T05:26:33.366Z,9.35
2018-07-21T05:29:00.682Z,9.70
2018-07-21T05:31:27.930Z,9.33
2018-07-21T05:33:55.372Z,9.68
2018-07-21T05:36:22.687Z,9.10
2018-07-21T05:38:50.001Z,9.15
2018-07-21T05:41:17.271Z,9.70
2018-07-21T05:43:44.628Z,9.38
2018-07-21T05:46:11.926Z,8.75
2018-07-21T05:48:39.263Z,9.30
2018-07-21T05:51:06.545Z,9.28
2018-07-21T05:53:33.892Z,8.90
2018-07-21T05:56:01.507Z,8.48
2018-07-21T05:58:28.783Z,9.10
2018-07-21T06:00:56.326Z,8.50
2018-07-21T06:03:23.579Z,9.55
2018-07-21T06:05:50.844Z,9.75
2018-07-21T06:08:18.223Z,8.78
2018-07-21T06:10:45.524Z,9.88
2018-07-21T06:13:12.827Z,9.75
2018-07-21T06:15:40.092Z,10.25
2018-07-21T06:18:07.397Z,9.53
2018-07-21T06:20:34.634Z,10.13
2018-07-21T06:23:02.128Z,10.20
2018-07-21T06:25:29.387Z,9.98
2018-07-21T06:27:57.131Z,10.55
2018-07-21T06:30:24.854Z,11.03
2018-07-21T06:32:52.174Z,11.00
2018-07-21T06:35:19.467Z,10.30
2018-07-21T06:37:46.964Z,10.65
2018-07-21T06:40:14.264Z,10.30
2018-07-21T06:42:41.554Z,10.58
2018-07-21T06:45:08.959Z,10.85
2018-07-21T06:47:36.270Z,10.70
2018-07-21T06:50:04.039Z,11.45
2018-07-21T06:52:32.494Z,10.80
2018-07-21T06:54:59.938Z,10.70
2018-07-21T06:57:27.235Z,10.53
2018-07-21T06:59:54.548Z,11.35
2018-07-21T07:02:21.806Z,11.35
2018-07-21T07:04:49.356Z,11.48
2018-07-21T07:07:16.694Z,12.15
2018-07-21T07:09:43.974Z,12.13
2018-07-21T07:12:11.259Z,12.50
2018-07-21T07:14:38.519Z,12.85
2018-07-21T07:17:05.856Z,13.60
2018-07-21T07:19:33.240Z,13.95
2018-07-21T07:22:00.814Z,13.13
2018-07-21T07:24:28.152Z,14.10
2018-07-21T07:26:55.544Z,14.68
2018-07-21T07:29:22.876Z,13.70
2018-07-21T07:31:50.210Z,13.60
2018-07-21T07:34:17.566Z,13.15
2018-07-21T07:36:44.954Z,15.03
2018-07-21T07:39:12.355Z,14.73
2018-07-21T07:41:39.766Z,14.47
2018-07-21T07:44:07.335Z,12.80
2018-07-21T07:46:35.028Z,13.30
2018-07-21T07:49:02.310Z,13.65
2018-07-21T07:51:29.574Z,13.98
2018-07-21T07:53:56.923Z,14.73
2018-07-21T07:56:24.562Z,14.78
2018-07-21T07:58:51.869Z,15.90
2018-07-21T08:01:19.504Z,14.87
2018-07-21T08:03:46.794Z,14.30
2018-07-21T08:06:14.134Z,12.73
2018-07-21T08:08:41.411Z,14.05
2018-07-21T08:11:08.694Z,14.73
2018-07-21T08:13:36.450Z,13.72
2018-07-21T08:16:03.755Z,14.75
2018-07-21T08:18:31.216Z,15.93
2018-07-21T08:20:58.520Z,14.80
2018-07-21T08:23:26.182Z,15.72
2018-07-21T08:25:53.427Z,15.03
2018-07-21T08:28:20.727Z,18.32
2018-07-21T08:30:48.043Z,19.80
2018-07-21T08:33:15.293Z,18.35
2018-07-21T08:35:42.564Z,19.32
2018-07-21T08:38:09.824Z,21.10
2018-07-21T08:40:37.105Z,21.55
2018-07-21T08:43:04.363Z,22.75
2018-07-21T08:45:31.663Z,22.82
2018-07-21T08:47:58.990Z,21.12
2018-07-21T08:50:26.259Z,24.82
2018-07-21T08:52:54.007Z,25.70
2018-07-21T08:55:21.262Z,30.68
2018-07-21T08:57:48.802Z,30.12
2018-07-21T09:00:16.392Z,27.93
2018-07-21T09:02:43.834Z,28.30
2018-07-21T09:05:11.127Z,27.35
2018-07-21T09:07:38.948Z,27.62
2018-07-21T09:10:06.765Z,29.92
2018-07-21T09:12:34.388Z,29.77
2018-07-21T09:15:01.654Z,30.55
2018-07-21T09:17:28.904Z,32.00
2018-07-21T09:19:56.205Z,25.97
2018-07-21T09:22:23.486Z,28.05
2018-07-21T09:24:50.777Z,29.55
2018-07-21T09:27:18.066Z,27.80
2018-07-21T09:29:45.515Z,27.02
2018-07-21T09:32:13.179Z,27.87
2018-07-21T09:34:40.491Z,30.12
2018-07-21T09:37:07.818Z,34.38
2018-07-21T09:39:35.374Z,28.23
2018-07-21T09:42:03.008Z,29.32
2018-07-21T09:44:30.303Z,27.30
2018-07-21T09:46:57.562Z,30.08
2018-07-21T09:49:24.978Z,27.98
2018-07-21T09:51:52.309Z,29.80
2018-07-21T09:54:19.792Z,29.82
2018-07-21T09:56:47.136Z,30.52
2018-07-21T09:59:14.413Z,32.98
2018-07-21T10:01:41.743Z,32.60
2018-07-21T10:04:08.940Z,33.65
2018-07-21T10:06:36.231Z,30.12
2018-07-21T10:09:06.481Z,26.75
2018-07-21T10:11:33.834Z,26.00
2018-07-21T10:14:01.123Z,27.13
2018-07-21T10:16:28.375Z,32.88
2018-07-21T10:18:55.628Z,26.40
2018-07-21T10:21:23.768Z,25.80
2018-07-21T10:23:52.435Z,21.35
2018-07-21T10:26:25.725Z,23.10
2018-07-21T10:28:58.807Z,22.02
2018-07-21T10:31:26.141Z,23.67
2018-07-21T10:33:53.639Z,23.32
2018-07-21T10:36:21.336Z,22.58
2018-07-21T10:38:48.664Z,23.35
2018-07-21T10:41:16.521Z,24.07
2018-07-21T10:43:43.795Z,21.60
2018-07-21T10:46:11.086Z,19.05
2018-07-21T10:48:38.430Z,19.75
2018-07-21T10:51:05.812Z,21.95
2018-07-21T10:53:33.105Z,21.10
2018-07-21T10:56:00.458Z,23.60
2018-07-21T10:58:27.742Z,21.55
2018-07-21T11:00:55.255Z,21.87
2018-07-21T11:03:22.640Z,23.83
2018-07-21T11:05:50.104Z,22.45
2018-07-21T11:08:17.383Z,23.20
2018-07-21T11:10:44.757Z,22.27
2018-07-21T11:13:12.091Z,21.97
2018-07-21T11:15:39.367Z,18.45
2018-07-21T11:18:06.700Z,19.67
2018-07-21T11:20:34.027Z,19.02
2018-07-21T11:23:01.322Z,20.82
2018-07-21T11:25:28.612Z,21.10
2018-07-21T11:27:55.902Z,20.92
2018-07-21T11:30:23.160Z,19.45
2018-07-21T11:32:50.460Z,21.75
2018-07-21T11:35:17.861Z,21.15
2018-07-21T11:37:45.135Z,19.00
2018-07-21T11:40:12.459Z,17.92
2018-07-21T11:42:39.727Z,18.23
2018-07-21T11:45:07.145Z,15.53
2018-07-21T11:47:34.427Z,16.12
2018-07-21T11:50:01.688Z,14.93
2018-07-21T11:52:29.023Z,15.78
2018-07-21T11:54:56.508Z,17.98
2018-07-21T11:57:24.096Z,16.97
2018-07-21T11:59:51.396Z,17.60
2018-07-21T12:02:18.768Z,18.48
2018-07-21T12:04:46.177Z,16.90
2018-07-21T12:07:13.623Z,19.15
2018-07-21T12:09:40.907Z,17.85
2018-07-21T12:12:08.340Z,16.20
2018-07-21T12:14:35.792Z,18.32
2018-07-21T12:17:03.062Z,18.30
2018-07-21T12:19:30.350Z,16.30
2018-07-21T12:21:57.645Z,14.68
2018-07-21T12:24:24.995Z,15.65
2018-07-21T12:26:52.394Z,15.23
2018-07-21T12:29:19.764Z,14.50
2018-07-21T12:31:47.323Z,15.83
2018-07-21T12:34:14.666Z,17.15
2018-07-21T12:36:41.887Z,16.48
2018-07-21T12:39:10.060Z,17.23
2018-07-21T12:41:37.847Z,16.97
2018-07-21T12:44:05.219Z,17.32
2018-07-21T12:46:32.631Z,18.23
2018-07-21T12:48:59.957Z,16.52
2018-07-21T12:51:27.491Z,15.45
2018-07-21T12:53:55.219Z,16.85
2018-07-21T12:56:22.513Z,14.25
2018-07-21T12:58:49.814Z,13.32
2018-07-21T13:01:17.099Z,11.45
2018-07-21T13:03:44.375Z,12.18
2018-07-21T13:06:11.730Z,11.15
2018-07-21T13:08:39.006Z,9.43
2018-07-21T13:11:06.635Z,10.03
2018-07-21T13:13:33.903Z,9.80
2018-07-21T13:16:01.339Z,10.82
2018-07-21T13:18:28.633Z,10.45
2018-07-21T13:20:55.958Z,11.43
2018-07-21T13:23:23.409Z,10.93
2018-07-21T13:25:50.691Z,12.23
2018-07-21T13:28:18.035Z,13.20
2018-07-21T13:30:45.328Z,13.68
2018-07-21T13:33:13.504Z,13.62
2018-07-21T13:35:40.911Z,14.75
2018-07-21T13:38:08.445Z,15.10
2018-07-21T13:40:35.772Z,13.75
2018-07-21T13:43:03.113Z,13.25
2018-07-21T13:45:30.395Z,12.18
2018-07-21T13:47:57.697Z,13.28
2018-07-21T13:50:25.020Z,13.78
2018-07-21T13:52:52.367Z,14.23
2018-07-21T13:55:19.700Z,13.78
2018-07-21T13:57:47.140Z,14.45
2018-07-21T14:00:14.479Z,14.18
2018-07-21T14:02:42.409Z,15.00
2018-07-21T14:05:09.687Z,14.15
2018-07-21T14:07:37.259Z,12.95
2018-07-21T14:10:04.801Z,11.60
2018-07-21T14:12:32.345Z,12.05
2018-07-21T14:14:59.802Z,11.18
2018-07-21T14:17:27.218Z,10.95
2018-07-21T14:19:54.585Z,10.93
2018-07-21T14:22:21.854Z,11.75
2018-07-21T14:24:49.409Z,12.93
2018-07-21T14:27:16.710Z,13.00
2018-07-21T14:29:44.178Z,12.78
2018-07-21T14:32:11.699Z,13.45
2018-07-21T14:34:39.013Z,13.13
2018-07-21T14:37:06.655Z,11.80
2018-07-21T14:39:33.999Z,11.45
2018-07-21T14:42:01.335Z,11.53
2018-07-21T14:44:28.599Z,10.23
2018-07-21T14:46:55.917Z,9.38
2018-07-21T14:49:23.206Z,10.80
2018-07-21T14:51:50.504Z,10.18
2018-07-21T14:54:18.470Z,9.85
2018-07-21T14:56:45.761Z,9.98
2018-07-21T14:59:13.218Z,10.50
2018-07-21T15:01:40.565Z,10.18
2018-07-21T15:04:07.855Z,11.22
2018-07-21T15:06:35.249Z,11.30
2018-07-21T15:09:02.631Z,10.43
2018-07-21T15:11:29.937Z,11.70
2018-07-21T15:13:57.299Z,11.38
2018-07-21T15:16:24.583Z,11.83
2018-07-21T15:18:51.851Z,12.50
2018-07-21T15:21:19.167Z,11.38
2018-07-21T15:23:46.696Z,11.70
2018-07-21T15:26:14.102Z,11.20
2018-07-21T15:28:41.391Z,11.33
2018-07-21T15:31:08.812Z,11.20
2018-07-21T15:33:36.084Z,11.33
2018-07-21T15:36:03.336Z,12.63
2018-07-21T15:38:30.683Z,11.30
2018-07-21T15:40:58.042Z,9.65
2018-07-21T15:43:25.342Z,8.98
2018-07-21T15:45:52.634Z,9.43
2018-07-21T15:48:20.055Z,10.00
2018-07-21T15:50:47.494Z,10.78
2018-07-21T15:53:15.331Z,10.85
2018-07-21T15:55:42.632Z,10.18
2018-07-21T15:58:10.090Z,10.63
2018-07-21T16:00:37.579Z,10.80
2018-07-21T16:03:04.896Z,10.93
2018-07-21T16:05:32.183Z,11.73
2018-07-21T16:07:59.576Z,11.80
2018-07-21T16:10:26.872Z,12.55
2018-07-21T16:12:54.299Z,10.15
2018-07-21T16:15:21.675Z,9.35
2018-07-21T16:17:48.952Z,9.80
2018-07-21T16:20:16.249Z,8.60
2018-07-21T16:22:44.777Z,8.85
2018-07-21T16:25:12.136Z,9.43
2018-07-21T16:27:39.504Z,9.70
2018-07-21T16:30:06.911Z,10.30
2018-07-21T16:32:34.255Z,9.73
2018-07-21T16:35:01.496Z,10.85
2018-07-21T16:37:28.856Z,11.12
2018-07-21T16:39:56.740Z,11.80
2018-07-21T16:42:24.085Z,12.68
2018-07-21T16:44:51.403Z,12.30
2018-07-21T16:47:18.727Z,11.12
2018-07-21T16:49:46.330Z,11.60
2018-07-21T16:52:13.602Z,19.70
2018-07-21T16:54:41.259Z,14.33
2018-07-21T16:57:08.599Z,13.22
2018-07-21T16:59:35.907Z,12.75
2018-07-21T17:02:03.224Z,13.50
2018-07-21T17:04:30.877Z,13.62
2018-07-21T17:06:58.195Z,13.90
2018-07-21T17:09:25.596Z,14.50
2018-07-21T17:11:53.058Z,14.65
2018-07-21T17:14:20.451Z,15.78
2018-07-21T17:16:47.699Z,15.13
2018-07-21T17:19:15.050Z,15.95
2018-07-21T17:21:42.498Z,15.53
2018-07-21T17:24:09.931Z,16.00
2018-07-21T17:26:37.208Z,15.00
2018-07-21T17:29:04.551Z,15.70
2018-07-21T17:31:31.956Z,15.72
2018-07-21T17:33:59.459Z,16.42
2018-07-21T17:36:26.747Z,16.52
2018-07-21T17:38:54.027Z,17.60
2018-07-21T17:41:21.376Z,18.10
2018-07-21T17:43:48.666Z,18.35
2018-07-21T17:46:17.007Z,18.75
2018-07-21T17:48:44.313Z,18.80
2018-07-21T17:51:11.588Z,19.30
2018-07-21T17:53:38.883Z,19.92
2018-07-21T17:56:06.363Z,20.12
2018-07-21T17:58:33.683Z,19.75
2018-07-21T18:01:00.983Z,20.50
2018-07-21T18:03:28.304Z,19.10
2018-07-21T18:05:55.697Z,20.90
2018-07-21T18:08:23.194Z,17.87
2018-07-21T18:10:50.495Z,18.20
2018-07-21T18:13:17.824Z,18.85
2018-07-21T18:15:45.212Z,16.97
2018-07-21T18:18:12.516Z,18.67
2018-07-21T18:20:39.811Z,17.90
2018-07-21T18:23:07.371Z,17.15
2018-07-21T18:25:34.770Z,18.27
2018-07-21T18:28:02.119Z,17.40
2018-07-21T18:30:29.522Z,16.73
2018-07-21T18:32:56.818Z,16.12
2018-07-21T18:35:24.703Z,17.32
2018-07-21T18:37:52.176Z,18.15
2018-07-21T18:40:20.005Z,17.80
2018-07-21T18:42:47.360Z,18.15
2018-07-21T18:45:14.782Z,17.73
2018-07-21T18:47:42.196Z,18.70
2018-07-21T18:50:09.700Z,20.37
2018-07-21T18:52:37.132Z,20.57
2018-07-21T18:55:04.825Z,21.90
2018-07-21T18:57:32.207Z,20.62
2018-07-21T19:00:00.107Z,20.95
2018-07-21T19:02:28.131Z,21.95
2018-07-21T19:04:55.631Z,22.60
2018-07-21T19:07:22.931Z,22.37
2018-07-21T19:09:50.623Z,22.07
2018-07-21T19:12:23.846Z,22.40
2018-07-21T19:14:51.216Z,22.87
2018-07-21T19:17:19.374Z,24.27
2018-07-21T19:19:53.660Z,24.45
2018-07-21T19:22:21.908Z,24.95
2018-07-21T19:24:49.294Z,27.07
2018-07-21T19:27:22.287Z,27.02
2018-07-21T19:29:49.794Z,26.62
2018-07-21T19:32:23.119Z,28.65
2018-07-21T19:34:50.525Z,28.23
2018-07-21T19:37:23.459Z,28.73
2018-07-21T19:39:51.054Z,29.70
2018-07-21T19:42:18.296Z,30.62
2018-07-21T19:44:45.580Z,31.05
2018-07-21T19:47:13.139Z,31.20
2018-07-21T19:49:40.385Z,33.35
2018-07-21T19:52:08.064Z,32.80
2018-07-21T19:54:35.436Z,32.63
2018-07-21T19:57:02.921Z,33.15
2018-07-21T19:59:30.216Z,32.35
2018-07-21T20:01:57.564Z,31.80
2018-07-21T20:04:25.047Z,34.38
2018-07-21T20:06:52.354Z,32.88
2018-07-21T20:09:19.739Z,32.60
2018-07-21T20:11:47.151Z,33.88
2018-07-21T20:14:14.677Z,33.92
2018-07-21T20:16:42.011Z,35.23
2018-07-21T20:19:09.378Z,33.63
2018-07-21T20:21:36.918Z,35.28
2018-07-21T20:24:04.332Z,34.48
2018-07-21T20:26:31.663Z,35.78
2018-07-21T20:28:58.922Z,36.45
2018-07-21T20:31:26.282Z,34.75
2018-07-21T20:33:53.532Z,34.20
2018-07-21T20:36:20.871Z,33.08
2018-07-21T20:38:48.460Z,34.65
2018-07-21T20:41:15.797Z,35.63
2018-07-21T20:43:43.117Z,34.43
2018-07-21T20:46:10.491Z,36.33
2018-07-21T20:48:37.900Z,36.20
2018-07-21T20:51:05.445Z,37.20
2018-07-21T20:53:33.246Z,36.42
2018-07-21T20:56:00.522Z,35.15
2018-07-21T20:58:27.852Z,35.78
2018-07-21T21:00:55.388Z,36.23
2018-07-21T21:03:22.707Z,36.20
2018-07-21T21:05:50.014Z,35.92
2018-07-21T21:08:17.450Z,35.28
2018-07-21T21:10:44.803Z,35.05
2018-07-21T21:13:12.267Z,35.28
2018-07-21T21:15:39.802Z,37.35
2018-07-21T21:18:08.131Z,37.30
2018-07-21T21:20:35.411Z,39.75
2018-07-21T21:23:02.776Z,40.03
2018-07-21T21:25:30.064Z,39.30
2018-07-21T21:27:57.313Z,40.58
2018-07-21T21:30:24.755Z,42.62
2018-07-21T21:32:52.003Z,41.15
2018-07-21T21:35:19.262Z,41.48
2018-07-21T21:37:46.564Z,43.92
2018-07-21T21:40:13.920Z,39.67
2018-07-21T21:42:41.353Z,35.83
2018-07-21T21:45:08.664Z,36.63
2018-07-21T21:47:36.243Z,36.73
2018-07-21T21:50:03.695Z,37.73
2018-07-21T21:52:30.986Z,38.98
2018-07-21T21:54:58.276Z,34.18
2018-07-21T21:57:25.575Z,34.00
2018-07-21T21:59:52.854Z,32.83
2018-07-21T22:02:20.156Z,31.52
2018-07-21T22:04:47.450Z,31.87
2018-07-21T22:07:14.830Z,29.70
2018-07-21T22:09:42.164Z,30.00
2018-07-21T22:12:09.513Z,32.15
2018-07-21T22:14:36.818Z,32.17
2018-07-21T22:17:04.254Z,31.48
2018-07-21T22:19:31.565Z,28.05
2018-07-21T22:21:58.862Z,27.20
2018-07-21T22:24:26.128Z,26.68
2018-07-21T22:26:53.795Z,27.58
2018-07-21T22:29:21.135Z,26.90
2018-07-21T22:31:48.384Z,29.23
2018-07-21T22:34:15.656Z,30.48
2018-07-21T22:36:42.947Z,27.77
2018-07-21T22:39:11.386Z,28.87
2018-07-21T22:41:38.921Z,26.48
2018-07-21T22:44:06.279Z,26.82
2018-07-21T22:46:33.564Z,29.12
2018-07-21T22:49:00.847Z,26.68
2018-07-21T22:51:28.195Z,26.82
2018-07-21T22:53:55.463Z,28.73
2018-07-21T22:56:22.800Z,28.15
2018-07-21T22:58:50.067Z,26.37
2018-07-21T23:01:17.413Z,27.07
2018-07-21T23:03:44.623Z,23.35
2018-07-21T23:06:11.936Z,24.50
2018-07-21T23:08:39.319Z,25.12
2018-07-21T23:11:06.710Z,25.62
2018-07-21T23:13:34.031Z,26.10
2018-07-21T23:16:01.359Z,26.50
2018-07-21T23:18:28.658Z,27.73
2018-07-21T23:20:55.899Z,29.02
2018-07-21T23:23:23.199Z,28.77
2018-07-21T23:25:50.549Z,28.05
2018-07-21T23:28:17.816Z,27.32
2018-07-21T23:30:46.187Z,28.60
2018-07-21T23:33:13.496Z,28.70
2018-07-21T23:35:40.868Z,28.17
2018-07-21T23:38:08.155Z,28.65
2018-07-21T23:40:35.467Z,29.57
2018-07-21T23:43:02.808Z,30.32
2018-07-21T23:45:30.078Z,28.95
2018-07-21T23:47:57.391Z,30.30
2018-07-21T23:50:24.739Z,30.37
2018-07-21T23:52:52.066Z,30.77
2018-07-21T23:55:19.343Z,31.65
2018-07-21T23:57:46.893Z,31.68
